sensor_id;sensor_type;location;lat;lon;timestamp;P1;durP1;ratioP1;P2;durP2;ratioP2
20415;SDS011;10367;52.202;5.996;2024-03-08T00:01:18;40.93;;;17.87;;
20415;SDS011;10367;52.202;5.996;2024-03-08T00:03:48;49.37;;;21.63;;
20415;SDS011;10367;52.202;5.996;2024-03-08T00:06:19;44.83;;;19.00;;
20415;SDS011;10367;52.202;5.996;2024-03-08T00:08:48;41.87;;;18.80;;
20415;SDS011;10367;52.202;5.996;2024-03-08T00:11:17;45.73;;;20.33;;
20415;SDS011;10367;52.202;5.996;2024-03-08T00:13:47;44.80;;;20.50;;
20415;SDS011;10367;52.202;5.996;2024-03-08T00:16:16;46.73;;;19.70;;
20415;SDS011;10367;52.202;5.996;2024-03-08T00:18:46;53.33;;;19.80;;
20415;SDS011;10367;52.202;5.996;2024-03-08T00:21:17;50.10;;;20.60;;
20415;SDS011;10367;52.202;5.996;2024-03-08T00:23:46;43.67;;;19.23;;
20415;SDS011;10367;52.202;5.996;2024-03-08T00:26:15;45.17;;;20.33;;
20415;SDS011;10367;52.202;5.996;2024-03-08T00:28:44;41.27;;;18.57;;
20415;SDS011;10367;52.202;5.996;2024-03-08T00:31:13;42.43;;;17.67;;
20415;SDS011;10367;52.202;5.996;2024-03-08T00:33:43;48.90;;;20.37;;
20415;SDS011;10367;52.202;5.996;2024-03-08T00:36:12;43.90;;;19.77;;
20415;SDS011;10367;52.202;5.996;2024-03-08T00:38:43;37.97;;;18.30;;
20415;SDS011;10367;52.202;5.996;2024-03-08T00:41:12;41.87;;;18.67;;
20415;SDS011;10367;52.202;5.996;2024-03-08T00:43:41;39.67;;;18.67;;
20415;SDS011;10367;52.202;5.996;2024-03-08T00:46:10;43.37;;;20.03;;
20415;SDS011;10367;52.202;5.996;2024-03-08T00:48:39;39.47;;;19.37;;
20415;SDS011;10367;52.202;5.996;2024-03-08T00:51:10;44.00;;;17.83;;
20415;SDS011;10367;52.202;5.996;2024-03-08T00:53:39;45.87;;;18.67;;
20415;SDS011;10367;52.202;5.996;2024-03-08T00:56:10;38.93;;;18.43;;
20415;SDS011;10367;52.202;5.996;2024-03-08T00:58:39;44.93;;;19.47;;
20415;SDS011;10367;52.202;5.996;2024-03-08T01:01:08;49.17;;;20.73;;
20415;SDS011;10367;52.202;5.996;2024-03-08T01:03:37;39.77;;;19.00;;
20415;SDS011;10367;52.202;5.996;2024-03-08T01:06:05;41.20;;;17.67;;
20415;SDS011;10367;52.202;5.996;2024-03-08T01:08:35;46.00;;;20.47;;
20415;SDS011;10367;52.202;5.996;2024-03-08T01:11:05;41.20;;;19.33;;
20415;SDS011;10367;52.202;5.996;2024-03-08T01:13:35;45.97;;;18.80;;
20415;SDS011;10367;52.202;5.996;2024-03-08T01:16:04;41.33;;;18.63;;
20415;SDS011;10367;52.202;5.996;2024-03-08T01:18:34;41.97;;;17.93;;
20415;SDS011;10367;52.202;5.996;2024-03-08T01:21:03;39.80;;;16.60;;
20415;SDS011;10367;52.202;5.996;2024-03-08T01:23:33;42.50;;;16.93;;
20415;SDS011;10367;52.202;5.996;2024-03-08T01:26:02;48.60;;;19.07;;
20415;SDS011;10367;52.202;5.996;2024-03-08T01:28:30;39.47;;;17.43;;
20415;SDS011;10367;52.202;5.996;2024-03-08T01:31:02;47.70;;;18.87;;
20415;SDS011;10367;52.202;5.996;2024-03-08T01:33:33;46.63;;;18.37;;
20415;SDS011;10367;52.202;5.996;2024-03-08T01:36:02;44.90;;;20.37;;
20415;SDS011;10367;52.202;5.996;2024-03-08T01:38:31;45.67;;;19.33;;
20415;SDS011;10367;52.202;5.996;2024-03-08T01:41:00;44.57;;;19.27;;
20415;SDS011;10367;52.202;5.996;2024-03-08T01:43:29;42.73;;;18.97;;
20415;SDS011;10367;52.202;5.996;2024-03-08T01:45:58;39.37;;;18.37;;
20415;SDS011;10367;52.202;5.996;2024-03-08T01:48:28;43.27;;;18.27;;
20415;SDS011;10367;52.202;5.996;2024-03-08T01:50:58;45.77;;;20.17;;
20415;SDS011;10367;52.202;5.996;2024-03-08T01:53:27;42.07;;;19.27;;
20415;SDS011;10367;52.202;5.996;2024-03-08T01:55:58;46.40;;;20.20;;
20415;SDS011;10367;52.202;5.996;2024-03-08T01:58:27;41.30;;;17.77;;
20415;SDS011;10367;52.202;5.996;2024-03-08T02:00:57;44.63;;;19.03;;
20415;SDS011;10367;52.202;5.996;2024-03-08T02:03:29;40.40;;;18.50;;
20415;SDS011;10367;52.202;5.996;2024-03-08T02:05:58;39.67;;;19.60;;
20415;SDS011;10367;52.202;5.996;2024-03-08T02:08:27;44.10;;;19.83;;
20415;SDS011;10367;52.202;5.996;2024-03-08T02:10:56;40.20;;;18.53;;
20415;SDS011;10367;52.202;5.996;2024-03-08T02:13:26;36.37;;;18.03;;
20415;SDS011;10367;52.202;5.996;2024-03-08T02:15:56;54.67;;;20.47;;
20415;SDS011;10367;52.202;5.996;2024-03-08T02:18:28;45.73;;;19.90;;
20415;SDS011;10367;52.202;5.996;2024-03-08T02:21:00;46.27;;;19.70;;
20415;SDS011;10367;52.202;5.996;2024-03-08T02:23:30;43.53;;;18.53;;
20415;SDS011;10367;52.202;5.996;2024-03-08T02:26:00;42.63;;;18.77;;
20415;SDS011;10367;52.202;5.996;2024-03-08T02:28:31;48.93;;;19.50;;
20415;SDS011;10367;52.202;5.996;2024-03-08T02:31:01;40.90;;;19.73;;
20415;SDS011;10367;52.202;5.996;2024-03-08T02:33:34;46.70;;;18.03;;
20415;SDS011;10367;52.202;5.996;2024-03-08T02:36:05;35.60;;;16.50;;
20415;SDS011;10367;52.202;5.996;2024-03-08T02:38:35;41.23;;;19.07;;
20415;SDS011;10367;52.202;5.996;2024-03-08T02:41:06;39.67;;;17.57;;
20415;SDS011;10367;52.202;5.996;2024-03-08T02:43:35;44.77;;;18.43;;
20415;SDS011;10367;52.202;5.996;2024-03-08T02:46:04;34.57;;;16.43;;
20415;SDS011;10367;52.202;5.996;2024-03-08T02:48:33;39.43;;;17.67;;
20415;SDS011;10367;52.202;5.996;2024-03-08T02:51:03;42.90;;;18.23;;
20415;SDS011;10367;52.202;5.996;2024-03-08T02:53:33;40.73;;;18.70;;
20415;SDS011;10367;52.202;5.996;2024-03-08T02:56:02;45.73;;;19.77;;
20415;SDS011;10367;52.202;5.996;2024-03-08T02:58:31;40.60;;;19.63;;
20415;SDS011;10367;52.202;5.996;2024-03-08T03:01:00;45.60;;;18.40;;
20415;SDS011;10367;52.202;5.996;2024-03-08T03:03:29;49.60;;;20.33;;
20415;SDS011;10367;52.202;5.996;2024-03-08T03:05:57;46.87;;;19.03;;
20415;SDS011;10367;52.202;5.996;2024-03-08T03:08:29;44.73;;;18.73;;
20415;SDS011;10367;52.202;5.996;2024-03-08T03:10:58;47.57;;;18.70;;
20415;SDS011;10367;52.202;5.996;2024-03-08T03:13:27;35.10;;;16.83;;
20415;SDS011;10367;52.202;5.996;2024-03-08T03:15:56;45.20;;;19.67;;
20415;SDS011;10367;52.202;5.996;2024-03-08T03:18:25;43.60;;;19.53;;
20415;SDS011;10367;52.202;5.996;2024-03-08T03:20:54;46.23;;;20.63;;
20415;SDS011;10367;52.202;5.996;2024-03-08T03:23:23;42.07;;;19.30;;
20415;SDS011;10367;52.202;5.996;2024-03-08T03:25:54;49.23;;;20.57;;
20415;SDS011;10367;52.202;5.996;2024-03-08T03:28:24;48.00;;;20.80;;
20415;SDS011;10367;52.202;5.996;2024-03-08T03:30:55;58.17;;;20.23;;
20415;SDS011;10367;52.202;5.996;2024-03-08T03:33:25;51.90;;;21.43;;
20415;SDS011;10367;52.202;5.996;2024-03-08T03:35:54;46.40;;;20.30;;
20415;SDS011;10367;52.202;5.996;2024-03-08T03:38:23;45.33;;;18.63;;
20415;SDS011;10367;52.202;5.996;2024-03-08T03:40:56;47.47;;;18.57;;
20415;SDS011;10367;52.202;5.996;2024-03-08T03:43:31;48.23;;;20.70;;
20415;SDS011;10367;52.202;5.996;2024-03-08T03:46:00;47.33;;;18.20;;
20415;SDS011;10367;52.202;5.996;2024-03-08T03:48:28;50.87;;;20.97;;
20415;SDS011;10367;52.202;5.996;2024-03-08T03:50:59;41.27;;;17.97;;
20415;SDS011;10367;52.202;5.996;2024-03-08T03:53:27;39.83;;;16.23;;
20415;SDS011;10367;52.202;5.996;2024-03-08T03:55:58;49.67;;;18.40;;
20415;SDS011;10367;52.202;5.996;2024-03-08T03:58:27;46.73;;;19.93;;
20415;SDS011;10367;52.202;5.996;2024-03-08T04:00:56;51.80;;;21.53;;
20415;SDS011;10367;52.202;5.996;2024-03-08T04:03:25;48.97;;;20.23;;
20415;SDS011;10367;52.202;5.996;2024-03-08T04:05:53;46.53;;;19.37;;
20415;SDS011;10367;52.202;5.996;2024-03-08T04:08:22;49.50;;;21.07;;
20415;SDS011;10367;52.202;5.996;2024-03-08T04:10:51;43.60;;;19.47;;
20415;SDS011;10367;52.202;5.996;2024-03-08T04:13:21;44.10;;;18.97;;
20415;SDS011;10367;52.202;5.996;2024-03-08T04:15:50;47.57;;;21.07;;
20415;SDS011;10367;52.202;5.996;2024-03-08T04:18:19;41.23;;;18.27;;
20415;SDS011;10367;52.202;5.996;2024-03-08T04:20:48;57.97;;;22.43;;
20415;SDS011;10367;52.202;5.996;2024-03-08T04:23:17;44.10;;;19.67;;
20415;SDS011;10367;52.202;5.996;2024-03-08T04:25:46;46.93;;;20.90;;
20415;SDS011;10367;52.202;5.996;2024-03-08T04:28:15;43.93;;;18.93;;
20415;SDS011;10367;52.202;5.996;2024-03-08T04:30:45;40.37;;;18.03;;
20415;SDS011;10367;52.202;5.996;2024-03-08T04:33:14;47.73;;;19.33;;
20415;SDS011;10367;52.202;5.996;2024-03-08T04:35:45;45.90;;;18.80;;
20415;SDS011;10367;52.202;5.996;2024-03-08T04:38:14;46.43;;;19.30;;
20415;SDS011;10367;52.202;5.996;2024-03-08T04:40:43;42.97;;;19.63;;
20415;SDS011;10367;52.202;5.996;2024-03-08T04:43:12;50.33;;;20.43;;
20415;SDS011;10367;52.202;5.996;2024-03-08T04:45:41;46.57;;;19.53;;
20415;SDS011;10367;52.202;5.996;2024-03-08T04:48:12;40.83;;;18.63;;
20415;SDS011;10367;52.202;5.996;2024-03-08T04:50:41;53.67;;;20.13;;
20415;SDS011;10367;52.202;5.996;2024-03-08T04:53:11;38.90;;;17.97;;
20415;SDS011;10367;52.202;5.996;2024-03-08T04:55:40;40.93;;;18.40;;
20415;SDS011;10367;52.202;5.996;2024-03-08T04:58:09;44.77;;;19.20;;
20415;SDS011;10367;52.202;5.996;2024-03-08T05:00:38;48.83;;;20.37;;
20415;SDS011;10367;52.202;5.996;2024-03-08T05:03:07;44.73;;;19.47;;
20415;SDS011;10367;52.202;5.996;2024-03-08T05:05:37;38.27;;;17.70;;
20415;SDS011;10367;52.202;5.996;2024-03-08T05:08:06;51.97;;;21.30;;
20415;SDS011;10367;52.202;5.996;2024-03-08T05:10:35;47.33;;;21.10;;
20415;SDS011;10367;52.202;5.996;2024-03-08T05:13:04;51.10;;;20.27;;
20415;SDS011;10367;52.202;5.996;2024-03-08T05:15:32;43.60;;;19.37;;
20415;SDS011;10367;52.202;5.996;2024-03-08T05:18:02;45.53;;;21.10;;
20415;SDS011;10367;52.202;5.996;2024-03-08T05:20:31;48.33;;;20.60;;
20415;SDS011;10367;52.202;5.996;2024-03-08T05:23:01;40.97;;;18.97;;
20415;SDS011;10367;52.202;5.996;2024-03-08T05:25:30;52.13;;;21.70;;
20415;SDS011;10367;52.202;5.996;2024-03-08T05:27:59;51.30;;;23.47;;
20415;SDS011;10367;52.202;5.996;2024-03-08T05:30:31;38.27;;;17.97;;
20415;SDS011;10367;52.202;5.996;2024-03-08T05:32:59;49.60;;;19.73;;
20415;SDS011;10367;52.202;5.996;2024-03-08T05:35:28;51.53;;;22.00;;
20415;SDS011;10367;52.202;5.996;2024-03-08T05:37:57;45.13;;;19.37;;
20415;SDS011;10367;52.202;5.996;2024-03-08T05:40:28;40.07;;;18.00;;
20415;SDS011;10367;52.202;5.996;2024-03-08T05:42:58;40.80;;;18.40;;
20415;SDS011;10367;52.202;5.996;2024-03-08T05:45:28;43.93;;;19.30;;
20415;SDS011;10367;52.202;5.996;2024-03-08T05:47:57;50.43;;;21.97;;
20415;SDS011;10367;52.202;5.996;2024-03-08T05:50:26;53.13;;;20.90;;
20415;SDS011;10367;52.202;5.996;2024-03-08T05:52:55;46.17;;;19.10;;
20415;SDS011;10367;52.202;5.996;2024-03-08T05:55:24;49.47;;;20.03;;
20415;SDS011;10367;52.202;5.996;2024-03-08T05:57:54;45.20;;;19.27;;
20415;SDS011;10367;52.202;5.996;2024-03-08T06:00:23;47.83;;;20.90;;
20415;SDS011;10367;52.202;5.996;2024-03-08T06:02:53;55.33;;;20.83;;
20415;SDS011;10367;52.202;5.996;2024-03-08T06:05:22;52.03;;;21.27;;
20415;SDS011;10367;52.202;5.996;2024-03-08T06:07:51;44.47;;;18.10;;
20415;SDS011;10367;52.202;5.996;2024-03-08T06:10:21;38.93;;;18.10;;
20415;SDS011;10367;52.202;5.996;2024-03-08T06:12:50;42.70;;;18.87;;
20415;SDS011;10367;52.202;5.996;2024-03-08T06:15:20;49.50;;;19.63;;
20415;SDS011;10367;52.202;5.996;2024-03-08T06:17:49;51.60;;;20.33;;
20415;SDS011;10367;52.202;5.996;2024-03-08T06:20:19;40.77;;;17.77;;
20415;SDS011;10367;52.202;5.996;2024-03-08T06:22:53;47.00;;;20.03;;
20415;SDS011;10367;52.202;5.996;2024-03-08T06:25:22;51.63;;;21.60;;
20415;SDS011;10367;52.202;5.996;2024-03-08T06:27:50;48.00;;;18.63;;
20415;SDS011;10367;52.202;5.996;2024-03-08T06:30:21;46.00;;;19.50;;
20415;SDS011;10367;52.202;5.996;2024-03-08T06:32:50;42.20;;;19.20;;
20415;SDS011;10367;52.202;5.996;2024-03-08T06:35:19;63.43;;;21.90;;
20415;SDS011;10367;52.202;5.996;2024-03-08T06:37:48;56.30;;;22.20;;
20415;SDS011;10367;52.202;5.996;2024-03-08T06:40:17;45.50;;;20.37;;
20415;SDS011;10367;52.202;5.996;2024-03-08T06:42:46;50.20;;;22.27;;
20415;SDS011;10367;52.202;5.996;2024-03-08T06:45:15;40.47;;;19.23;;
20415;SDS011;10367;52.202;5.996;2024-03-08T06:47:49;45.03;;;20.13;;
20415;SDS011;10367;52.202;5.996;2024-03-08T06:50:17;56.87;;;23.83;;
20415;SDS011;10367;52.202;5.996;2024-03-08T06:52:46;49.73;;;20.80;;
20415;SDS011;10367;52.202;5.996;2024-03-08T06:55:20;52.57;;;21.87;;
20415;SDS011;10367;52.202;5.996;2024-03-08T06:57:49;45.33;;;19.23;;
20415;SDS011;10367;52.202;5.996;2024-03-08T07:00:18;53.10;;;21.73;;
20415;SDS011;10367;52.202;5.996;2024-03-08T07:02:49;43.03;;;20.57;;
20415;SDS011;10367;52.202;5.996;2024-03-08T07:05:20;52.10;;;22.63;;
20415;SDS011;10367;52.202;5.996;2024-03-08T07:07:50;52.00;;;22.60;;
20415;SDS011;10367;52.202;5.996;2024-03-08T07:10:19;44.50;;;20.63;;
20415;SDS011;10367;52.202;5.996;2024-03-08T07:12:50;48.87;;;22.77;;
20415;SDS011;10367;52.202;5.996;2024-03-08T07:15:20;55.13;;;23.43;;
20415;SDS011;10367;52.202;5.996;2024-03-08T07:17:51;48.43;;;21.60;;
20415;SDS011;10367;52.202;5.996;2024-03-08T07:20:20;46.40;;;21.60;;
20415;SDS011;10367;52.202;5.996;2024-03-08T07:22:49;47.70;;;20.93;;
20415;SDS011;10367;52.202;5.996;2024-03-08T07:25:18;48.53;;;22.33;;
20415;SDS011;10367;52.202;5.996;2024-03-08T07:27:50;53.63;;;23.47;;
20415;SDS011;10367;52.202;5.996;2024-03-08T07:30:20;44.27;;;19.47;;
20415;SDS011;10367;52.202;5.996;2024-03-08T07:33:08;46.80;;;21.30;;
20415;SDS011;10367;52.202;5.996;2024-03-08T07:35:40;46.30;;;19.67;;
20415;SDS011;10367;52.202;5.996;2024-03-08T07:38:11;51.83;;;22.67;;
20415;SDS011;10367;52.202;5.996;2024-03-08T07:40:41;52.13;;;23.70;;
20415;SDS011;10367;52.202;5.996;2024-03-08T07:43:12;56.40;;;23.37;;
20415;SDS011;10367;52.202;5.996;2024-03-08T07:45:41;51.97;;;21.53;;
20415;SDS011;10367;52.202;5.996;2024-03-08T07:48:11;46.37;;;20.73;;
20415;SDS011;10367;52.202;5.996;2024-03-08T07:50:41;54.33;;;23.30;;
20415;SDS011;10367;52.202;5.996;2024-03-08T07:53:09;45.33;;;20.43;;
20415;SDS011;10367;52.202;5.996;2024-03-08T07:55:38;44.60;;;20.07;;
20415;SDS011;10367;52.202;5.996;2024-03-08T07:58:09;47.50;;;21.63;;
20415;SDS011;10367;52.202;5.996;2024-03-08T08:00:40;51.27;;;22.23;;
20415;SDS011;10367;52.202;5.996;2024-03-08T08:03:11;48.30;;;23.13;;
20415;SDS011;10367;52.202;5.996;2024-03-08T08:05:40;41.57;;;20.23;;
20415;SDS011;10367;52.202;5.996;2024-03-08T08:08:09;57.67;;;24.60;;
20415;SDS011;10367;52.202;5.996;2024-03-08T08:10:38;50.30;;;22.40;;
20415;SDS011;10367;52.202;5.996;2024-03-08T08:13:07;57.00;;;23.67;;
20415;SDS011;10367;52.202;5.996;2024-03-08T08:15:36;42.10;;;20.50;;
20415;SDS011;10367;52.202;5.996;2024-03-08T08:18:05;55.80;;;23.60;;
20415;SDS011;10367;52.202;5.996;2024-03-08T08:20:38;40.73;;;21.37;;
20415;SDS011;10367;52.202;5.996;2024-03-08T08:23:07;46.00;;;21.27;;
20415;SDS011;10367;52.202;5.996;2024-03-08T08:25:37;48.07;;;22.00;;
20415;SDS011;10367;52.202;5.996;2024-03-08T08:28:05;38.97;;;19.57;;
20415;SDS011;10367;52.202;5.996;2024-03-08T08:30:35;42.83;;;20.70;;
20415;SDS011;10367;52.202;5.996;2024-03-08T08:33:04;56.70;;;21.57;;
20415;SDS011;10367;52.202;5.996;2024-03-08T08:35:35;46.33;;;22.73;;
20415;SDS011;10367;52.202;5.996;2024-03-08T08:38:05;54.00;;;23.13;;
20415;SDS011;10367;52.202;5.996;2024-03-08T08:40:36;35.53;;;14.87;;
20415;SDS011;10367;52.202;5.996;2024-03-08T08:43:05;41.93;;;21.13;;
20415;SDS011;10367;52.202;5.996;2024-03-08T08:45:34;41.30;;;20.47;;
20415;SDS011;10367;52.202;5.996;2024-03-08T08:48:03;42.27;;;21.20;;
20415;SDS011;10367;52.202;5.996;2024-03-08T08:50:33;49.50;;;20.37;;
20415;SDS011;10367;52.202;5.996;2024-03-08T08:53:04;39.60;;;19.47;;
20415;SDS011;10367;52.202;5.996;2024-03-08T08:55:35;47.67;;;21.37;;
20415;SDS011;10367;52.202;5.996;2024-03-08T08:58:03;47.67;;;23.23;;
20415;SDS011;10367;52.202;5.996;2024-03-08T09:00:34;45.10;;;21.63;;
20415;SDS011;10367;52.202;5.996;2024-03-08T09:03:03;47.03;;;21.20;;
20415;SDS011;10367;52.202;5.996;2024-03-08T09:05:33;38.47;;;20.57;;
20415;SDS011;10367;52.202;5.996;2024-03-08T09:08:06;40.43;;;19.47;;
20415;SDS011;10367;52.202;5.996;2024-03-08T09:10:36;43.27;;;20.93;;
20415;SDS011;10367;52.202;5.996;2024-03-08T09:13:06;45.47;;;19.73;;
20415;SDS011;10367;52.202;5.996;2024-03-08T09:15:44;43.70;;;22.97;;
20415;SDS011;10367;52.202;5.996;2024-03-08T09:18:13;52.20;;;24.40;;
20415;SDS011;10367;52.202;5.996;2024-03-08T09:20:46;41.47;;;19.07;;
20415;SDS011;10367;52.202;5.996;2024-03-08T09:23:17;45.03;;;20.70;;
20415;SDS011;10367;52.202;5.996;2024-03-08T09:25:47;44.33;;;21.50;;
20415;SDS011;10367;52.202;5.996;2024-03-08T09:28:16;56.07;;;25.03;;
20415;SDS011;10367;52.202;5.996;2024-03-08T09:30:46;45.47;;;21.47;;
20415;SDS011;10367;52.202;5.996;2024-03-08T09:33:26;46.37;;;20.93;;
20415;SDS011;10367;52.202;5.996;2024-03-08T09:35:55;44.37;;;22.10;;
20415;SDS011;10367;52.202;5.996;2024-03-08T09:38:30;46.07;;;21.77;;
20415;SDS011;10367;52.202;5.996;2024-03-08T09:40:59;42.63;;;23.33;;
20415;SDS011;10367;52.202;5.996;2024-03-08T09:43:31;51.37;;;23.00;;
20415;SDS011;10367;52.202;5.996;2024-03-08T09:45:59;47.70;;;22.13;;
20415;SDS011;10367;52.202;5.996;2024-03-08T09:48:28;41.33;;;21.80;;
20415;SDS011;10367;52.202;5.996;2024-03-08T09:50:57;47.77;;;23.23;;
20415;SDS011;10367;52.202;5.996;2024-03-08T09:53:26;40.20;;;20.00;;
20415;SDS011;10367;52.202;5.996;2024-03-08T09:55:56;38.67;;;19.83;;
20415;SDS011;10367;52.202;5.996;2024-03-08T09:58:26;40.73;;;22.00;;
20415;SDS011;10367;52.202;5.996;2024-03-08T10:01:18;40.73;;;22.30;;
20415;SDS011;10367;52.202;5.996;2024-03-08T10:03:47;43.77;;;22.30;;
20415;SDS011;10367;52.202;5.996;2024-03-08T10:06:18;41.27;;;21.00;;
20415;SDS011;10367;52.202;5.996;2024-03-08T10:08:51;46.07;;;22.57;;
20415;SDS011;10367;52.202;5.996;2024-03-08T10:11:21;48.93;;;23.13;;
20415;SDS011;10367;52.202;5.996;2024-03-08T10:13:51;43.20;;;22.70;;
20415;SDS011;10367;52.202;5.996;2024-03-08T10:16:20;39.13;;;21.30;;
20415;SDS011;10367;52.202;5.996;2024-03-08T10:18:51;38.73;;;21.33;;
20415;SDS011;10367;52.202;5.996;2024-03-08T10:21:20;43.60;;;22.57;;
20415;SDS011;10367;52.202;5.996;2024-03-08T10:23:49;41.50;;;21.83;;
20415;SDS011;10367;52.202;5.996;2024-03-08T10:26:19;43.60;;;22.53;;
20415;SDS011;10367;52.202;5.996;2024-03-08T10:28:50;38.93;;;22.00;;
20415;SDS011;10367;52.202;5.996;2024-03-08T10:31:20;39.13;;;22.40;;
20415;SDS011;10367;52.202;5.996;2024-03-08T10:33:48;41.63;;;23.00;;
20415;SDS011;10367;52.202;5.996;2024-03-08T10:36:17;49.17;;;24.33;;
20415;SDS011;10367;52.202;5.996;2024-03-08T10:38:47;37.97;;;22.13;;
20415;SDS011;10367;52.202;5.996;2024-03-08T10:41:20;35.30;;;20.53;;
20415;SDS011;10367;52.202;5.996;2024-03-08T10:46:50;35.67;;;19.40;;
20415;SDS011;10367;52.202;5.996;2024-03-08T10:49:30;44.57;;;23.47;;
20415;SDS011;10367;52.202;5.996;2024-03-08T10:52:02;39.37;;;22.27;;
20415;SDS011;10367;52.202;5.996;2024-03-08T10:54:32;37.07;;;22.10;;
20415;SDS011;10367;52.202;5.996;2024-03-08T10:57:11;44.27;;;25.10;;
20415;SDS011;10367;52.202;5.996;2024-03-08T10:59:43;38.77;;;21.63;;
20415;SDS011;10367;52.202;5.996;2024-03-08T11:02:13;45.37;;;25.13;;
20415;SDS011;10367;52.202;5.996;2024-03-08T11:04:46;33.50;;;20.83;;
20415;SDS011;10367;52.202;5.996;2024-03-08T11:07:16;46.63;;;24.10;;
20415;SDS011;10367;52.202;5.996;2024-03-08T11:09:47;37.60;;;22.80;;
20415;SDS011;10367;52.202;5.996;2024-03-08T11:12:20;44.40;;;22.90;;
20415;SDS011;10367;52.202;5.996;2024-03-08T11:14:53;43.57;;;23.83;;
20415;SDS011;10367;52.202;5.996;2024-03-08T11:17:39;43.23;;;22.80;;
20415;SDS011;10367;52.202;5.996;2024-03-08T11:20:13;48.23;;;26.50;;
20415;SDS011;10367;52.202;5.996;2024-03-08T11:22:49;34.13;;;22.80;;
20415;SDS011;10367;52.202;5.996;2024-03-08T11:25:32;41.30;;;24.03;;
20415;SDS011;10367;52.202;5.996;2024-03-08T11:28:13;35.00;;;22.00;;
20415;SDS011;10367;52.202;5.996;2024-03-08T11:33:54;37.83;;;22.30;;
20415;SDS011;10367;52.202;5.996;2024-03-08T11:36:24;45.10;;;25.63;;
20415;SDS011;10367;52.202;5.996;2024-03-08T11:38:53;39.77;;;23.80;;
20415;SDS011;10367;52.202;5.996;2024-03-08T11:41:26;36.33;;;21.73;;
20415;SDS011;10367;52.202;5.996;2024-03-08T11:44:01;37.80;;;22.47;;
20415;SDS011;10367;52.202;5.996;2024-03-08T11:46:35;44.73;;;23.07;;
20415;SDS011;10367;52.202;5.996;2024-03-08T11:49:04;36.13;;;23.10;;
20415;SDS011;10367;52.202;5.996;2024-03-08T11:51:33;38.87;;;23.77;;
20415;SDS011;10367;52.202;5.996;2024-03-08T11:54:03;30.87;;;20.80;;
20415;SDS011;10367;52.202;5.996;2024-03-08T11:56:33;31.70;;;21.87;;
20415;SDS011;10367;52.202;5.996;2024-03-08T11:59:02;36.67;;;21.47;;
20415;SDS011;10367;52.202;5.996;2024-03-08T12:01:32;34.73;;;22.23;;
20415;SDS011;10367;52.202;5.996;2024-03-08T12:04:02;38.23;;;22.63;;
20415;SDS011;10367;52.202;5.996;2024-03-08T12:06:36;33.73;;;21.67;;
20415;SDS011;10367;52.202;5.996;2024-03-08T12:09:08;36.93;;;22.07;;
20415;SDS011;10367;52.202;5.996;2024-03-08T12:11:38;39.70;;;24.03;;
20415;SDS011;10367;52.202;5.996;2024-03-08T12:14:07;34.73;;;22.70;;
20415;SDS011;10367;52.202;5.996;2024-03-08T12:16:37;32.77;;;23.20;;
20415;SDS011;10367;52.202;5.996;2024-03-08T12:19:07;38.03;;;23.23;;
20415;SDS011;10367;52.202;5.996;2024-03-08T12:21:37;27.00;;;21.30;;
20415;SDS011;10367;52.202;5.996;2024-03-08T12:24:13;34.90;;;22.53;;
20415;SDS011;10367;52.202;5.996;2024-03-08T12:26:46;42.20;;;24.20;;
20415;SDS011;10367;52.202;5.996;2024-03-08T12:29:16;31.37;;;20.97;;
20415;SDS011;10367;52.202;5.996;2024-03-08T12:31:47;42.77;;;24.63;;
20415;SDS011;10367;52.202;5.996;2024-03-08T12:34:20;42.10;;;24.80;;
20415;SDS011;10367;52.202;5.996;2024-03-08T12:36:50;29.03;;;21.77;;
20415;SDS011;10367;52.202;5.996;2024-03-08T12:39:21;38.80;;;24.73;;
20415;SDS011;10367;52.202;5.996;2024-03-08T12:41:54;39.33;;;23.00;;
20415;SDS011;10367;52.202;5.996;2024-03-08T12:44:24;40.23;;;24.13;;
20415;SDS011;10367;52.202;5.996;2024-03-08T12:46:55;39.23;;;23.50;;
20415;SDS011;10367;52.202;5.996;2024-03-08T12:49:27;35.00;;;22.50;;
20415;SDS011;10367;52.202;5.996;2024-03-08T12:51:57;35.23;;;23.20;;
20415;SDS011;10367;52.202;5.996;2024-03-08T12:54:27;32.60;;;21.47;;
20415;SDS011;10367;52.202;5.996;2024-03-08T12:56:58;33.20;;;21.90;;
20415;SDS011;10367;52.202;5.996;2024-03-08T12:59:26;30.70;;;21.33;;
20415;SDS011;10367;52.202;5.996;2024-03-08T13:01:55;33.83;;;22.20;;
20415;SDS011;10367;52.202;5.996;2024-03-08T13:04:28;33.97;;;23.17;;
20415;SDS011;10367;52.202;5.996;2024-03-08T13:06:58;40.93;;;24.80;;
20415;SDS011;10367;52.202;5.996;2024-03-08T13:09:28;34.53;;;21.87;;
20415;SDS011;10367;52.202;5.996;2024-03-08T13:11:58;35.00;;;23.47;;
20415;SDS011;10367;52.202;5.996;2024-03-08T13:14:27;32.23;;;22.43;;
20415;SDS011;10367;52.202;5.996;2024-03-08T13:16:58;36.50;;;23.27;;
20415;SDS011;10367;52.202;5.996;2024-03-08T13:19:29;38.87;;;25.37;;
20415;SDS011;10367;52.202;5.996;2024-03-08T13:21:58;39.90;;;24.60;;
20415;SDS011;10367;52.202;5.996;2024-03-08T13:24:27;38.17;;;25.60;;
20415;SDS011;10367;52.202;5.996;2024-03-08T13:26:56;37.23;;;23.80;;
20415;SDS011;10367;52.202;5.996;2024-03-08T13:29:25;41.73;;;25.33;;
20415;SDS011;10367;52.202;5.996;2024-03-08T13:31:54;34.63;;;23.20;;
20415;SDS011;10367;52.202;5.996;2024-03-08T13:34:28;33.93;;;23.07;;
20415;SDS011;10367;52.202;5.996;2024-03-08T13:37:02;34.80;;;23.27;;
20415;SDS011;10367;52.202;5.996;2024-03-08T13:39:32;34.93;;;24.60;;
20415;SDS011;10367;52.202;5.996;2024-03-08T13:42:07;42.37;;;25.30;;
20415;SDS011;10367;52.202;5.996;2024-03-08T13:44:43;32.03;;;22.00;;
20415;SDS011;10367;52.202;5.996;2024-03-08T13:47:13;41.30;;;24.37;;
20415;SDS011;10367;52.202;5.996;2024-03-08T13:49:43;31.13;;;20.83;;
20415;SDS011;10367;52.202;5.996;2024-03-08T13:52:13;40.87;;;25.37;;
20415;SDS011;10367;52.202;5.996;2024-03-08T13:54:41;34.97;;;22.53;;
20415;SDS011;10367;52.202;5.996;2024-03-08T13:57:10;37.67;;;23.73;;
20415;SDS011;10367;52.202;5.996;2024-03-08T13:59:39;35.97;;;23.33;;
20415;SDS011;10367;52.202;5.996;2024-03-08T14:02:08;37.20;;;24.83;;
20415;SDS011;10367;52.202;5.996;2024-03-08T14:04:41;33.57;;;22.73;;
20415;SDS011;10367;52.202;5.996;2024-03-08T14:07:11;37.23;;;23.03;;
20415;SDS011;10367;52.202;5.996;2024-03-08T14:09:40;34.50;;;22.47;;
20415;SDS011;10367;52.202;5.996;2024-03-08T14:12:10;32.57;;;21.60;;
20415;SDS011;10367;52.202;5.996;2024-03-08T14:14:40;30.87;;;21.47;;
20415;SDS011;10367;52.202;5.996;2024-03-08T14:17:11;35.30;;;23.67;;
20415;SDS011;10367;52.202;5.996;2024-03-08T14:19:44;36.70;;;24.30;;
20415;SDS011;10367;52.202;5.996;2024-03-08T14:22:14;35.77;;;24.03;;
20415;SDS011;10367;52.202;5.996;2024-03-08T14:24:43;38.40;;;24.17;;
20415;SDS011;10367;52.202;5.996;2024-03-08T14:27:12;33.27;;;22.83;;
20415;SDS011;10367;52.202;5.996;2024-03-08T14:29:45;31.17;;;22.20;;
20415;SDS011;10367;52.202;5.996;2024-03-08T14:32:14;38.27;;;25.13;;
20415;SDS011;10367;52.202;5.996;2024-03-08T14:34:46;31.70;;;22.67;;
20415;SDS011;10367;52.202;5.996;2024-03-08T14:37:17;37.07;;;24.03;;
20415;SDS011;10367;52.202;5.996;2024-03-08T14:39:50;37.47;;;22.63;;
20415;SDS011;10367;52.202;5.996;2024-03-08T14:42:19;41.70;;;24.97;;
20415;SDS011;10367;52.202;5.996;2024-03-08T14:44:48;37.17;;;24.63;;